sensor_id;sensor_type;location;lat;lon;timestamp;P1;durP1;ratioP1;P2;durP2;ratioP2
10248;SDS011;5169;50.560;9.714;2023-11-21T00:01:38;5.17;;;3.90;;
10248;SDS011;5169;50.560;9.714;2023-11-21T00:04:03;4.80;;;3.60;;
10248;SDS011;5169;50.560;9.714;2023-11-21T00:06:29;4.70;;;3.20;;
10248;SDS011;5169;50.560;9.714;2023-11-21T00:08:56;3.70;;;3.00;;
10248;SDS011;5169;50.560;9.714;2023-11-21T00:11:24;4.63;;;3.10;;
10248;SDS011;5169;50.560;9.714;2023-11-21T00:13:50;4.63;;;3.00;;
10248;SDS011;5169;50.560;9.714;2023-11-21T00:16:18;4.80;;;3.00;;
10248;SDS011;5169;50.560;9.714;2023-11-21T00:18:44;3.20;;;2.90;;
10248;SDS011;5169;50.560;9.714;2023-11-21T00:21:11;5.30;;;3.20;;
10248;SDS011;5169;50.560;9.714;2023-11-21T00:23:37;5.13;;;3.30;;
10248;SDS011;5169;50.560;9.714;2023-11-21T00:26:03;5.07;;;3.70;;
10248;SDS011;5169;50.560;9.714;2023-11-21T00:28:29;6.80;;;3.43;;
10248;SDS011;5169;50.560;9.714;2023-11-21T00:30:57;3.57;;;2.97;;
10248;SDS011;5169;50.560;9.714;2023-11-21T00:33:23;3.70;;;3.00;;
10248;SDS011;5169;50.560;9.714;2023-11-21T00:35:52;4.13;;;3.40;;
10248;SDS011;5169;50.560;9.714;2023-11-21T00:38:20;4.07;;;3.20;;
10248;SDS011;5169;50.560;9.714;2023-11-21T00:40:46;3.50;;;3.00;;
10248;SDS011;5169;50.560;9.714;2023-11-21T00:43:14;3.77;;;3.00;;
10248;SDS011;5169;50.560;9.714;2023-11-21T00:45:40;3.70;;;2.40;;
10248;SDS011;5169;50.560;9.714;2023-11-21T00:48:05;4.07;;;2.30;;
10248;SDS011;5169;50.560;9.714;2023-11-21T00:50:33;2.87;;;1.93;;
10248;SDS011;5169;50.560;9.714;2023-11-21T00:52:58;4.30;;;1.80;;
10248;SDS011;5169;50.560;9.714;2023-11-21T00:55:24;3.30;;;1.87;;
10248;SDS011;5169;50.560;9.714;2023-11-21T00:57:50;2.40;;;2.00;;
10248;SDS011;5169;50.560;9.714;2023-11-21T01:00:16;3.67;;;2.30;;
10248;SDS011;5169;50.560;9.714;2023-11-21T01:02:45;3.00;;;2.30;;
10248;SDS011;5169;50.560;9.714;2023-11-21T01:05:12;3.00;;;2.20;;
10248;SDS011;5169;50.560;9.714;2023-11-21T01:07:38;4.47;;;2.60;;
10248;SDS011;5169;50.560;9.714;2023-11-21T01:10:03;3.47;;;2.70;;
10248;SDS011;5169;50.560;9.714;2023-11-21T01:12:36;3.03;;;2.30;;
10248;SDS011;5169;50.560;9.714;2023-11-21T01:15:06;5.13;;;2.70;;
10248;SDS011;5169;50.560;9.714;2023-11-21T01:17:39;2.60;;;2.40;;
10248;SDS011;5169;50.560;9.714;2023-11-21T01:20:05;3.77;;;1.97;;
10248;SDS011;5169;50.560;9.714;2023-11-21T01:22:37;2.57;;;2.17;;
10248;SDS011;5169;50.560;9.714;2023-11-21T01:25:04;2.53;;;2.33;;
10248;SDS011;5169;50.560;9.714;2023-11-21T01:27:32;3.40;;;2.33;;
10248;SDS011;5169;50.560;9.714;2023-11-21T01:30:04;2.97;;;2.10;;
10248;SDS011;5169;50.560;9.714;2023-11-21T01:32:32;2.13;;;1.90;;
10248;SDS011;5169;50.560;9.714;2023-11-21T01:34:57;2.30;;;2.00;;
10248;SDS011;5169;50.560;9.714;2023-11-21T01:37:28;2.30;;;2.10;;
10248;SDS011;5169;50.560;9.714;2023-11-21T01:39:54;3.27;;;2.20;;
10248;SDS011;5169;50.560;9.714;2023-11-21T01:42:22;2.80;;;2.20;;
10248;SDS011;5169;50.560;9.714;2023-11-21T01:44:48;2.77;;;1.93;;
10248;SDS011;5169;50.560;9.714;2023-11-21T01:47:14;2.30;;;2.10;;
10248;SDS011;5169;50.560;9.714;2023-11-21T01:49:45;2.67;;;2.00;;
10248;SDS011;5169;50.560;9.714;2023-11-21T01:52:12;4.10;;;1.93;;
10248;SDS011;5169;50.560;9.714;2023-11-21T01:54:40;2.57;;;2.23;;
10248;SDS011;5169;50.560;9.714;2023-11-21T01:57:08;2.10;;;1.90;;
10248;SDS011;5169;50.560;9.714;2023-11-21T01:59:35;2.30;;;2.10;;
10248;SDS011;5169;50.560;9.714;2023-11-21T02:02:08;2.53;;;2.20;;
10248;SDS011;5169;50.560;9.714;2023-11-21T02:04:34;3.37;;;2.40;;
10248;SDS011;5169;50.560;9.714;2023-11-21T02:07:01;2.60;;;2.40;;
10248;SDS011;5169;50.560;9.714;2023-11-21T02:09:30;2.50;;;1.90;;
10248;SDS011;5169;50.560;9.714;2023-11-21T02:11:59;1.53;;;1.17;;
10248;SDS011;5169;50.560;9.714;2023-11-21T02:14:26;1.70;;;0.80;;
10248;SDS011;5169;50.560;9.714;2023-11-21T02:16:55;1.97;;;0.80;;
10248;SDS011;5169;50.560;9.714;2023-11-21T02:19:26;2.33;;;1.00;;
10248;SDS011;5169;50.560;9.714;2023-11-21T02:21:52;1.97;;;0.80;;
10248;SDS011;5169;50.560;9.714;2023-11-21T02:24:21;2.17;;;0.90;;
10248;SDS011;5169;50.560;9.714;2023-11-21T02:26:47;2.37;;;1.00;;
10248;SDS011;5169;50.560;9.714;2023-11-21T02:29:16;2.50;;;1.07;;
10248;SDS011;5169;50.560;9.714;2023-11-21T02:31:52;2.73;;;0.70;;
10248;SDS011;5169;50.560;9.714;2023-11-21T02:34:19;2.20;;;0.80;;
10248;SDS011;5169;50.560;9.714;2023-11-21T02:36:46;1.43;;;0.77;;
10248;SDS011;5169;50.560;9.714;2023-11-21T02:39:16;2.40;;;0.87;;
10248;SDS011;5169;50.560;9.714;2023-11-21T02:41:47;2.73;;;0.70;;
10248;SDS011;5169;50.560;9.714;2023-11-21T02:44:12;1.17;;;0.60;;
10248;SDS011;5169;50.560;9.714;2023-11-21T02:46:38;2.53;;;0.90;;
10248;SDS011;5169;50.560;9.714;2023-11-21T02:49:05;1.27;;;0.87;;
10248;SDS011;5169;50.560;9.714;2023-11-21T02:51:31;2.43;;;0.80;;
10248;SDS011;5169;50.560;9.714;2023-11-21T02:53:57;1.40;;;1.10;;
10248;SDS011;5169;50.560;9.714;2023-11-21T02:56:27;2.23;;;1.20;;
10248;SDS011;5169;50.560;9.714;2023-11-21T02:58:55;5.70;;;2.73;;
10248;SDS011;5169;50.560;9.714;2023-11-21T03:01:24;3.97;;;3.30;;
10248;SDS011;5169;50.560;9.714;2023-11-21T03:03:50;4.50;;;3.03;;
10248;SDS011;5169;50.560;9.714;2023-11-21T03:06:20;3.40;;;2.63;;
10248;SDS011;5169;50.560;9.714;2023-11-21T03:08:46;4.53;;;3.10;;
10248;SDS011;5169;50.560;9.714;2023-11-21T03:11:12;6.47;;;3.60;;
10248;SDS011;5169;50.560;9.714;2023-11-21T03:13:41;4.20;;;3.50;;
10248;SDS011;5169;50.560;9.714;2023-11-21T03:16:11;6.30;;;3.57;;
10248;SDS011;5169;50.560;9.714;2023-11-21T03:18:39;4.33;;;3.77;;
10248;SDS011;5169;50.560;9.714;2023-11-21T03:21:10;6.50;;;3.50;;
10248;SDS011;5169;50.560;9.714;2023-11-21T03:23:37;4.30;;;3.47;;
10248;SDS011;5169;50.560;9.714;2023-11-21T03:26:03;10.20;;;3.90;;
10248;SDS011;5169;50.560;9.714;2023-11-21T03:28:29;4.40;;;3.70;;
10248;SDS011;5169;50.560;9.714;2023-11-21T03:30:55;4.50;;;3.67;;
10248;SDS011;5169;50.560;9.714;2023-11-21T03:33:21;4.73;;;3.40;;
10248;SDS011;5169;50.560;9.714;2023-11-21T03:35:47;3.83;;;3.20;;
10248;SDS011;5169;50.560;9.714;2023-11-21T03:38:14;7.33;;;3.17;;
10248;SDS011;5169;50.560;9.714;2023-11-21T03:40:40;4.13;;;3.23;;
10248;SDS011;5169;50.560;9.714;2023-11-21T03:43:06;4.07;;;3.43;;
10248;SDS011;5169;50.560;9.714;2023-11-21T03:45:32;3.93;;;3.10;;
10248;SDS011;5169;50.560;9.714;2023-11-21T03:47:57;3.77;;;3.00;;
10248;SDS011;5169;50.560;9.714;2023-11-21T03:50:23;3.07;;;2.70;;
10248;SDS011;5169;50.560;9.714;2023-11-21T03:52:48;4.40;;;2.80;;
10248;SDS011;5169;50.560;9.714;2023-11-21T03:55:19;3.20;;;2.50;;
10248;SDS011;5169;50.560;9.714;2023-11-21T03:57:44;2.67;;;2.43;;
10248;SDS011;5169;50.560;9.714;2023-11-21T04:00:10;3.60;;;2.23;;
10248;SDS011;5169;50.560;9.714;2023-11-21T04:02:36;3.13;;;2.13;;
10248;SDS011;5169;50.560;9.714;2023-11-21T04:05:02;2.53;;;2.03;;
10248;SDS011;5169;50.560;9.714;2023-11-21T04:07:28;3.43;;;1.90;;
10248;SDS011;5169;50.560;9.714;2023-11-21T04:09:54;3.33;;;1.60;;
10248;SDS011;5169;50.560;9.714;2023-11-21T04:12:19;4.20;;;1.90;;
10248;SDS011;5169;50.560;9.714;2023-11-21T04:14:45;2.50;;;1.57;;
10248;SDS011;5169;50.560;9.714;2023-11-21T04:17:11;2.50;;;2.00;;
10248;SDS011;5169;50.560;9.714;2023-11-21T04:19:36;2.87;;;2.00;;
10248;SDS011;5169;50.560;9.714;2023-11-21T04:22:02;2.43;;;2.00;;
10248;SDS011;5169;50.560;9.714;2023-11-21T04:24:27;2.30;;;1.70;;
10248;SDS011;5169;50.560;9.714;2023-11-21T04:26:55;1.97;;;1.40;;
10248;SDS011;5169;50.560;9.714;2023-11-21T04:29:21;2.00;;;1.40;;
10248;SDS011;5169;50.560;9.714;2023-11-21T04:31:50;3.03;;;2.10;;
10248;SDS011;5169;50.560;9.714;2023-11-21T04:34:18;3.23;;;2.00;;
10248;SDS011;5169;50.560;9.714;2023-11-21T04:36:43;7.67;;;3.10;;
10248;SDS011;5169;50.560;9.714;2023-11-21T04:39:11;4.87;;;3.63;;
10248;SDS011;5169;50.560;9.714;2023-11-21T04:41:37;5.00;;;3.77;;
10248;SDS011;5169;50.560;9.714;2023-11-21T04:44:04;5.00;;;4.00;;
10248;SDS011;5169;50.560;9.714;2023-11-21T04:46:30;5.53;;;4.37;;
10248;SDS011;5169;50.560;9.714;2023-11-21T04:48:57;4.73;;;4.17;;
10248;SDS011;5169;50.560;9.714;2023-11-21T04:51:23;7.67;;;5.23;;
10248;SDS011;5169;50.560;9.714;2023-11-21T04:53:53;7.20;;;5.30;;
10248;SDS011;5169;50.560;9.714;2023-11-21T04:56:19;7.57;;;5.60;;
10248;SDS011;5169;50.560;9.714;2023-11-21T04:58:46;8.20;;;5.53;;
10248;SDS011;5169;50.560;9.714;2023-11-21T05:01:14;9.53;;;5.73;;
10248;SDS011;5169;50.560;9.714;2023-11-21T05:03:40;8.20;;;6.10;;
10248;SDS011;5169;50.560;9.714;2023-11-21T05:06:12;12.03;;;6.10;;
10248;SDS011;5169;50.560;9.714;2023-11-21T05:08:37;8.70;;;5.33;;
10248;SDS011;5169;50.560;9.714;2023-11-21T05:11:07;9.00;;;5.80;;
10248;SDS011;5169;50.560;9.714;2023-11-21T05:13:35;6.43;;;5.33;;
10248;SDS011;5169;50.560;9.714;2023-11-21T05:16:01;7.87;;;5.83;;
10248;SDS011;5169;50.560;9.714;2023-11-21T05:18:29;14.90;;;5.50;;
10248;SDS011;5169;50.560;9.714;2023-11-21T05:20:55;6.93;;;5.47;;
10248;SDS011;5169;50.560;9.714;2023-11-21T05:23:21;8.77;;;6.27;;
10248;SDS011;5169;50.560;9.714;2023-11-21T05:25:46;7.77;;;6.43;;
10248;SDS011;5169;50.560;9.714;2023-11-21T05:28:17;7.77;;;6.10;;
10248;SDS011;5169;50.560;9.714;2023-11-21T05:30:42;8.10;;;6.87;;
10248;SDS011;5169;50.560;9.714;2023-11-21T05:33:09;8.93;;;6.47;;
10248;SDS011;5169;50.560;9.714;2023-11-21T05:35:39;10.00;;;6.30;;
10248;SDS011;5169;50.560;9.714;2023-11-21T05:38:04;7.07;;;6.00;;
10248;SDS011;5169;50.560;9.714;2023-11-21T05:40:30;8.03;;;6.50;;
10248;SDS011;5169;50.560;9.714;2023-11-21T05:42:58;7.63;;;6.00;;
10248;SDS011;5169;50.560;9.714;2023-11-21T05:45:24;7.47;;;5.90;;
10248;SDS011;5169;50.560;9.714;2023-11-21T05:47:54;8.43;;;6.63;;
10248;SDS011;5169;50.560;9.714;2023-11-21T05:50:23;10.10;;;5.90;;
10248;SDS011;5169;50.560;9.714;2023-11-21T05:52:50;6.60;;;5.87;;
10248;SDS011;5169;50.560;9.714;2023-11-21T05:55:16;7.40;;;5.60;;
10248;SDS011;5169;50.560;9.714;2023-11-21T05:57:46;7.73;;;6.10;;
10248;SDS011;5169;50.560;9.714;2023-11-21T06:00:12;7.53;;;5.50;;
10248;SDS011;5169;50.560;9.714;2023-11-21T06:02:46;7.63;;;5.40;;
10248;SDS011;5169;50.560;9.714;2023-11-21T06:05:15;7.90;;;6.30;;
10248;SDS011;5169;50.560;9.714;2023-11-21T06:07:42;7.50;;;5.33;;
10248;SDS011;5169;50.560;9.714;2023-11-21T06:10:11;8.10;;;6.10;;
10248;SDS011;5169;50.560;9.714;2023-11-21T06:12:46;6.73;;;5.30;;
10248;SDS011;5169;50.560;9.714;2023-11-21T06:15:14;7.13;;;5.97;;
10248;SDS011;5169;50.560;9.714;2023-11-21T06:17:41;7.63;;;5.37;;
10248;SDS011;5169;50.560;9.714;2023-11-21T06:20:08;8.33;;;5.93;;
10248;SDS011;5169;50.560;9.714;2023-11-21T06:22:37;9.93;;;5.87;;
10248;SDS011;5169;50.560;9.714;2023-11-21T06:25:04;8.30;;;6.00;;
10248;SDS011;5169;50.560;9.714;2023-11-21T06:27:34;8.97;;;5.87;;
10248;SDS011;5169;50.560;9.714;2023-11-21T06:30:04;8.73;;;6.10;;
10248;SDS011;5169;50.560;9.714;2023-11-21T06:32:34;9.10;;;6.13;;
10248;SDS011;5169;50.560;9.714;2023-11-21T06:35:01;9.90;;;6.63;;
10248;SDS011;5169;50.560;9.714;2023-11-21T06:37:30;9.67;;;7.13;;
10248;SDS011;5169;50.560;9.714;2023-11-21T06:39:59;10.03;;;6.50;;
10248;SDS011;5169;50.560;9.714;2023-11-21T06:42:25;8.47;;;5.87;;
10248;SDS011;5169;50.560;9.714;2023-11-21T06:44:52;9.70;;;6.20;;
10248;SDS011;5169;50.560;9.714;2023-11-21T06:47:19;8.63;;;6.60;;
10248;SDS011;5169;50.560;9.714;2023-11-21T06:49:49;8.33;;;6.43;;
10248;SDS011;5169;50.560;9.714;2023-11-21T06:52:18;9.37;;;6.90;;
10248;SDS011;5169;50.560;9.714;2023-11-21T06:54:44;8.43;;;6.53;;
10248;SDS011;5169;50.560;9.714;2023-11-21T06:57:11;8.97;;;6.10;;
10248;SDS011;5169;50.560;9.714;2023-11-21T06:59:39;8.63;;;6.20;;
10248;SDS011;5169;50.560;9.714;2023-11-21T07:02:04;8.90;;;6.40;;
10248;SDS011;5169;50.560;9.714;2023-11-21T07:04:34;9.77;;;6.17;;
10248;SDS011;5169;50.560;9.714;2023-11-21T07:07:05;7.37;;;5.80;;
10248;SDS011;5169;50.560;9.714;2023-11-21T07:09:37;7.43;;;5.87;;
10248;SDS011;5169;50.560;9.714;2023-11-21T07:12:03;8.10;;;5.93;;
10248;SDS011;5169;50.560;9.714;2023-11-21T07:14:31;7.80;;;5.93;;
10248;SDS011;5169;50.560;9.714;2023-11-21T07:16:57;9.77;;;6.63;;
10248;SDS011;5169;50.560;9.714;2023-11-21T07:19:22;8.43;;;6.13;;
10248;SDS011;5169;50.560;9.714;2023-11-21T07:21:48;8.87;;;6.40;;
10248;SDS011;5169;50.560;9.714;2023-11-21T07:24:17;8.57;;;6.60;;
10248;SDS011;5169;50.560;9.714;2023-11-21T07:26:43;10.03;;;6.90;;
10248;SDS011;5169;50.560;9.714;2023-11-21T07:29:11;9.10;;;6.40;;
10248;SDS011;5169;50.560;9.714;2023-11-21T07:31:36;9.17;;;6.60;;
10248;SDS011;5169;50.560;9.714;2023-11-21T07:34:03;7.57;;;6.13;;
10248;SDS011;5169;50.560;9.714;2023-11-21T07:36:29;6.93;;;5.77;;
10248;SDS011;5169;50.560;9.714;2023-11-21T07:38:54;7.57;;;5.90;;
10248;SDS011;5169;50.560;9.714;2023-11-21T07:41:20;11.73;;;8.13;;
10248;SDS011;5169;50.560;9.714;2023-11-21T07:43:46;11.00;;;8.27;;
10248;SDS011;5169;50.560;9.714;2023-11-21T07:46:12;12.77;;;8.77;;
10248;SDS011;5169;50.560;9.714;2023-11-21T07:48:41;10.73;;;7.30;;
10248;SDS011;5169;50.560;9.714;2023-11-21T07:51:11;9.33;;;7.10;;
10248;SDS011;5169;50.560;9.714;2023-11-21T07:53:40;9.03;;;6.97;;
10248;SDS011;5169;50.560;9.714;2023-11-21T07:56:06;10.30;;;7.57;;
10248;SDS011;5169;50.560;9.714;2023-11-21T07:58:33;11.00;;;7.70;;
10248;SDS011;5169;50.560;9.714;2023-11-21T08:01:02;9.17;;;6.70;;
10248;SDS011;5169;50.560;9.714;2023-11-21T08:03:28;9.87;;;7.40;;
10248;SDS011;5169;50.560;9.714;2023-11-21T08:05:57;13.43;;;8.07;;
10248;SDS011;5169;50.560;9.714;2023-11-21T08:08:28;8.73;;;6.73;;
10248;SDS011;5169;50.560;9.714;2023-11-21T08:10:57;9.27;;;6.37;;
10248;SDS011;5169;50.560;9.714;2023-11-21T08:13:25;9.63;;;7.10;;
10248;SDS011;5169;50.560;9.714;2023-11-21T08:15:55;11.23;;;6.13;;
10248;SDS011;5169;50.560;9.714;2023-11-21T08:18:21;8.80;;;6.73;;
10248;SDS011;5169;50.560;9.714;2023-11-21T08:20:47;9.20;;;6.50;;
10248;SDS011;5169;50.560;9.714;2023-11-21T08:23:15;7.93;;;6.10;;
10248;SDS011;5169;50.560;9.714;2023-11-21T08:25:46;12.03;;;9.90;;
10248;SDS011;5169;50.560;9.714;2023-11-21T08:28:12;10.57;;;8.43;;
10248;SDS011;5169;50.560;9.714;2023-11-21T08:30:39;9.40;;;7.93;;
10248;SDS011;5169;50.560;9.714;2023-11-21T08:33:06;14.10;;;9.37;;
10248;SDS011;5169;50.560;9.714;2023-11-21T08:35:35;11.03;;;8.10;;
10248;SDS011;5169;50.560;9.714;2023-11-21T08:38:01;10.43;;;9.33;;
10248;SDS011;5169;50.560;9.714;2023-11-21T08:40:32;8.17;;;7.10;;
10248;SDS011;5169;50.560;9.714;2023-11-21T08:43:00;7.03;;;6.23;;
10248;SDS011;5169;50.560;9.714;2023-11-21T08:45:25;8.93;;;6.40;;
10248;SDS011;5169;50.560;9.714;2023-11-21T08:47:53;8.73;;;6.87;;
10248;SDS011;5169;50.560;9.714;2023-11-21T08:50:21;9.33;;;6.70;;
10248;SDS011;5169;50.560;9.714;2023-11-21T08:52:49;8.10;;;6.23;;
10248;SDS011;5169;50.560;9.714;2023-11-21T08:55:16;10.33;;;7.23;;
10248;SDS011;5169;50.560;9.714;2023-11-21T08:57:45;9.33;;;7.17;;
10248;SDS011;5169;50.560;9.714;2023-11-21T09:00:13;12.03;;;7.90;;
10248;SDS011;5169;50.560;9.714;2023-11-21T09:02:41;11.00;;;7.77;;
10248;SDS011;5169;50.560;9.714;2023-11-21T09:05:10;15.27;;;7.50;;
10248;SDS011;5169;50.560;9.714;2023-11-21T09:07:38;11.47;;;8.00;;
10248;SDS011;5169;50.560;9.714;2023-11-21T09:10:06;10.37;;;7.97;;
10248;SDS011;5169;50.560;9.714;2023-11-21T09:12:32;13.63;;;8.27;;
10248;SDS011;5169;50.560;9.714;2023-11-21T09:15:03;12.23;;;6.83;;
10248;SDS011;5169;50.560;9.714;2023-11-21T09:17:37;8.70;;;6.40;;
10248;SDS011;5169;50.560;9.714;2023-11-21T09:20:03;13.13;;;6.80;;
10248;SDS011;5169;50.560;9.714;2023-11-21T09:22:31;17.03;;;7.73;;
10248;SDS011;5169;50.560;9.714;2023-11-21T09:24:57;10.10;;;6.30;;
10248;SDS011;5169;50.560;9.714;2023-11-21T09:27:22;22.33;;;7.13;;
10248;SDS011;5169;50.560;9.714;2023-11-21T09:29:48;22.50;;;7.43;;
10248;SDS011;5169;50.560;9.714;2023-11-21T09:32:17;8.67;;;6.27;;
10248;SDS011;5169;50.560;9.714;2023-11-21T09:34:43;8.27;;;5.77;;
10248;SDS011;5169;50.560;9.714;2023-11-21T09:37:10;6.63;;;4.97;;
10248;SDS011;5169;50.560;9.714;2023-11-21T09:39:38;7.73;;;5.00;;
10248;SDS011;5169;50.560;9.714;2023-11-21T09:44:38;7.20;;;5.10;;
10248;SDS011;5169;50.560;9.714;2023-11-21T09:47:14;8.07;;;5.93;;
10248;SDS011;5169;50.560;9.714;2023-11-21T09:49:46;9.80;;;6.03;;
10248;SDS011;5169;50.560;9.714;2023-11-21T09:52:15;7.70;;;5.27;;
10248;SDS011;5169;50.560;9.714;2023-11-21T09:54:52;7.17;;;5.13;;
10248;SDS011;5169;50.560;9.714;2023-11-21T09:57:19;6.70;;;4.80;;
10248;SDS011;5169;50.560;9.714;2023-11-21T09:59:47;8.30;;;5.17;;
10248;SDS011;5169;50.560;9.714;2023-11-21T10:02:25;5.00;;;3.90;;
10248;SDS011;5169;50.560;9.714;2023-11-21T10:04:58;5.97;;;4.10;;
10248;SDS011;5169;50.560;9.714;2023-11-21T10:07:25;6.17;;;4.60;;
10248;SDS011;5169;50.560;9.714;2023-11-21T10:09:52;6.37;;;4.13;;
10248;SDS011;5169;50.560;9.714;2023-11-21T10:12:18;8.17;;;5.43;;
10248;SDS011;5169;50.560;9.714;2023-11-21T10:14:48;9.60;;;4.93;;
10248;SDS011;5169;50.560;9.714;2023-11-21T10:17:14;5.97;;;4.10;;
10248;SDS011;5169;50.560;9.714;2023-11-21T10:19:43;6.27;;;3.73;;
10248;SDS011;5169;50.560;9.714;2023-11-21T10:22:15;7.47;;;4.53;;
10248;SDS011;5169;50.560;9.714;2023-11-21T10:24:42;6.30;;;4.50;;
10248;SDS011;5169;50.560;9.714;2023-11-21T10:27:08;7.00;;;4.70;;
10248;SDS011;5169;50.560;9.714;2023-11-21T10:29:34;5.53;;;4.10;;
10248;SDS011;5169;50.560;9.714;2023-11-21T10:32:02;6.97;;;5.03;;
10248;SDS011;5169;50.560;9.714;2023-11-21T10:34:30;6.67;;;5.07;;
10248;SDS011;5169;50.560;9.714;2023-11-21T10:36:56;8.33;;;6.00;;
10248;SDS011;5169;50.560;9.714;2023-11-21T10:39:23;8.27;;;5.87;;
10248;SDS011;5169;50.560;9.714;2023-11-21T10:41:52;7.43;;;5.57;;
10248;SDS011;5169;50.560;9.714;2023-11-21T10:44:19;8.57;;;6.13;;
10248;SDS011;5169;50.560;9.714;2023-11-21T10:46:52;9.03;;;5.60;;
10248;SDS011;5169;50.560;9.714;2023-11-21T10:49:21;9.20;;;6.63;;
10248;SDS011;5169;50.560;9.714;2023-11-21T10:51:50;7.50;;;6.27;;
10248;SDS011;5169;50.560;9.714;2023-11-21T10:54:21;12.30;;;6.90;;
10248;SDS011;5169;50.560;9.714;2023-11-21T10:56:49;7.67;;;6.60;;
10248;SDS011;5169;50.560;9.714;2023-11-21T10:59:18;10.50;;;6.77;;
10248;SDS011;5169;50.560;9.714;2023-11-21T11:01:45;8.77;;;6.93;;
10248;SDS011;5169;50.560;9.714;2023-11-21T11:04:11;9.30;;;7.00;;
10248;SDS011;5169;50.560;9.714;2023-11-21T11:06:44;11.77;;;7.27;;
10248;SDS011;5169;50.560;9.714;2023-11-21T11:09:30;12.73;;;7.20;;
10248;SDS011;5169;50.560;9.714;2023-11-21T11:12:00;11.67;;;6.97;;
10248;SDS011;5169;50.560;9.714;2023-11-21T11:14:27;7.83;;;6.67;;
10248;SDS011;5169;50.560;9.714;2023-11-21T11:16:54;10.93;;;7.40;;
10248;SDS011;5169;50.560;9.714;2023-11-21T11:19:20;9.90;;;7.13;;
10248;SDS011;5169;50.560;9.714;2023-11-21T11:25:10;10.57;;;7.83;;
10248;SDS011;5169;50.560;9.714;2023-11-21T11:28:17;8.67;;;7.13;;
10248;SDS011;5169;50.560;9.714;2023-11-21T11:36:48;10.77;;;7.23;;
10248;SDS011;5169;50.560;9.714;2023-11-21T11:39:31;10.53;;;7.77;;
10248;SDS011;5169;50.560;9.714;2023-11-21T11:42:01;9.13;;;7.10;;
10248;SDS011;5169;50.560;9.714;2023-11-21T11:47:16;8.80;;;6.40;;
10248;SDS011;5169;50.560;9.714;2023-11-21T11:50:08;11.57;;;7.33;;
10248;SDS011;5169;50.560;9.714;2023-11-21T11:52:50;13.27;;;8.20;;
10248;SDS011;5169;50.560;9.714;2023-11-21T11:55:23;12.13;;;7.77;;
10248;SDS011;5169;50.560;9.714;2023-11-21T11:57:51;10.20;;;8.10;;
10248;SDS011;5169;50.560;9.714;2023-11-21T12:00:21;13.70;;;7.67;;
10248;SDS011;5169;50.560;9.714;2023-11-21T12:03:00;13.30;;;8.60;;
10248;SDS011;5169;50.560;9.714;2023-11-21T12:05:28;11.47;;;8.00;;
10248;SDS011;5169;50.560;9.714;2023-11-21T12:07:58;10.43;;;7.50;;
10248;SDS011;5169;50.560;9.714;2023-11-21T12:10:29;11.33;;;7.27;;
10248;SDS011;5169;50.560;9.714;2023-11-21T12:15:25;12.87;;;8.17;;
10248;SDS011;5169;50.560;9.714;2023-11-21T12:17:52;12.37;;;7.70;;
10248;SDS011;5169;50.560;9.714;2023-11-21T12:20:21;11.90;;;7.87;;
10248;SDS011;5169;50.560;9.714;2023-11-21T12:22:51;13.13;;;8.03;;
10248;SDS011;5169;50.560;9.714;2023-11-21T12:25:21;10.43;;;7.17;;
10248;SDS011;5169;50.560;9.714;2023-11-21T12:27:57;12.43;;;7.80;;
10248;SDS011;5169;50.560;9.714;2023-11-21T12:30:25;10.67;;;7.20;;
10248;SDS011;5169;50.560;9.714;2023-11-21T12:32:55;10.07;;;7.53;;
10248;SDS011;5169;50.560;9.714;2023-11-21T12:35:23;10.30;;;7.10;;
10248;SDS011;5169;50.560;9.714;2023-11-21T12:37:51;10.97;;;7.10;;
10248;SDS011;5169;50.560;9.714;2023-11-21T12:40:17;10.90;;;6.90;;
10248;SDS011;5169;50.560;9.714;2023-11-21T12:42:48;13.90;;;7.67;;
10248;SDS011;5169;50.560;9.714;2023-11-21T12:47:52;13.07;;;7.47;;
10248;SDS011;5169;50.560;9.714;2023-11-21T12:50:22;12.47;;;7.50;;
10248;SDS011;5169;50.560;9.714;2023-11-21T12:52:49;12.23;;;7.70;;
10248;SDS011;5169;50.560;9.714;2023-11-21T12:55:20;11.47;;;7.23;;
10248;SDS011;5169;50.560;9.714;2023-11-21T12:57:50;9.57;;;6.63;;
10248;SDS011;5169;50.560;9.714;2023-11-21T13:00:20;10.60;;;6.70;;
10248;SDS011;5169;50.560;9.714;2023-11-21T13:02:57;10.10;;;6.53;;
10248;SDS011;5169;50.560;9.714;2023-11-21T13:05:45;10.13;;;7.30;;
10248;SDS011;5169;50.560;9.714;2023-11-21T13:08:12;11.13;;;7.17;;
10248;SDS011;5169;50.560;9.714;2023-11-21T13:10:44;9.87;;;7.23;;
10248;SDS011;5169;50.560;9.714;2023-11-21T13:13:14;9.30;;;6.53;;
10248;SDS011;5169;50.560;9.714;2023-11-21T13:15:52;10.10;;;6.70;;
10248;SDS011;5169;50.560;9.714;2023-11-21T13:18:22;9.30;;;7.00;;
10248;SDS011;5169;50.560;9.714;2023-11-21T13:20:48;11.80;;;7.27;;
10248;SDS011;5169;50.560;9.714;2023-11-21T13:23:17;10.13;;;6.80;;
10248;SDS011;5169;50.560;9.714;2023-11-21T13:25:43;9.93;;;6.90;;
10248;SDS011;5169;50.560;9.714;2023-11-21T13:28:10;11.97;;;7.33;;
10248;SDS011;5169;50.560;9.714;2023-11-21T13:30:37;11.60;;;7.53;;
10248;SDS011;5169;50.560;9.714;2023-11-21T13:33:05;11.93;;;7.23;;
10248;SDS011;5169;50.560;9.714;2023-11-21T13:35:33;12.20;;;6.37;;
10248;SDS011;5169;50.560;9.714;2023-11-21T13:38:09;14.17;;;7.57;;
10248;SDS011;5169;50.560;9.714;2023-11-21T13:40:36;11.70;;;7.50;;
10248;SDS011;5169;50.560;9.714;2023-11-21T13:43:12;10.07;;;6.70;;
10248;SDS011;5169;50.560;9.714;2023-11-21T13:45:42;10.03;;;7.33;;
10248;SDS011;5169;50.560;9.714;2023-11-21T13:48:10;11.03;;;7.73;;
10248;SDS011;5169;50.560;9.714;2023-11-21T13:50:42;10.77;;;6.83;;
10248;SDS011;5169;50.560;9.714;2023-11-21T13:53:16;14.17;;;7.90;;
10248;SDS011;5169;50.560;9.714;2023-11-21T13:55:47;11.97;;;7.37;;
10248;SDS011;5169;50.560;9.714;2023-11-21T13:58:19;12.10;;;7.50;;
10248;SDS011;5169;50.560;9.714;2023-11-21T14:00:51;9.87;;;6.57;;
10248;SDS011;5169;50.560;9.714;2023-11-21T14:03:25;10.13;;;6.63;;
10248;SDS011;5169;50.560;9.714;2023-11-21T14:06:03;8.97;;;5.93;;
10248;SDS011;5169;50.560;9.714;2023-11-21T14:08:39;8.83;;;6.33;;
10248;SDS011;5169;50.560;9.714;2023-11-21T14:11:05;9.83;;;6.07;;
10248;SDS011;5169;50.560;9.714;2023-11-21T14:13:31;9.03;;;6.43;;
10248;SDS011;5169;50.560;9.714;2023-11-21T14:15:59;9.87;;;6.83;;
10248;SDS011;5169;50.560;9.714;2023-11-21T14:18:27;12.07;;;7.43;;
10248;SDS011;5169;50.560;9.714;2023-11-21T14:20:59;11.57;;;7.13;;
10248;SDS011;5169;50.560;9.714;2023-11-21T14:23:25;12.90;;;7.30;;
10248;SDS011;5169;50.560;9.714;2023-11-21T14:25:50;11.50;;;7.37;;
10248;SDS011;5169;50.560;9.714;2023-11-21T14:28:17;11.93;;;6.83;;
10248;SDS011;5169;50.560;9.714;2023-11-21T14:30:46;13.37;;;7.30;;
10248;SDS011;5169;50.560;9.714;2023-11-21T14:33:12;12.80;;;8.07;;
10248;SDS011;5169;50.560;9.714;2023-11-21T14:35:40;10.57;;;7.37;;
10248;SDS011;5169;50.560;9.714;2023-11-21T14:38:06;11.43;;;7.60;;
10248;SDS011;5169;50.560;9.714;2023-11-21T14:40:31;13.83;;;9.53;;
10248;SDS011;5169;50.560;9.714;2023-11-21T14:43:01;13.77;;;8.83;;
10248;SDS011;5169;50.560;9.714;2023-11-21T14:45:30;13.37;;;8.50;;
10248;SDS011;5169;50.560;9.714;2023-11-21T14:47:59;16.43;;;9.33;;
10248;SDS011;5169;50.560;9.714;2023-11-21T14:50:31;16.03;;;9.73;;
10248;SDS011;5169;50.560;9.714;2023-11-21T14:53:06;16.70;;;9.70;;
10248;SDS011;5169;50.560;9.714;2023-11-21T14:55:33;18.33;;;9.90;;
10248;SDS011;5169;50.560;9.714;2023-11-21T14:58:17;18.37;;;9.43;;
10248;SDS011;5169;50.560;9.714;2023-11-21T15:01:00;11.93;;;8.60;;
10248;SDS011;5169;50.560;9.714;2023-11-21T15:03:29;14.00;;;8.93;;
10248;SDS011;5169;50.560;9.714;2023-11-21T15:05:58;13.53;;;9.20;;
10248;SDS011;5169;50.560;9.714;2023-11-21T15:08:47;16.30;;;9.60;;
10248;SDS011;5169;50.560;9.714;2023-11-21T15:11:20;13.53;;;9.37;;
10248;SDS011;5169;50.560;9.714;2023-11-21T15:13:55;13.13;;;8.53;;
10248;SDS011;5169;50.560;9.714;2023-11-21T15:16:21;15.13;;;8.80;;
10248;SDS011;5169;50.560;9.714;2023-11-21T15:18:50;11.83;;;8.30;;
10248;SDS011;5169;50.560;9.714;2023-11-21T15:21:19;14.73;;;9.53;;
10248;SDS011;5169;50.560;9.714;2023-11-21T15:23:47;15.60;;;10.77;;
10248;SDS011;5169;50.560;9.714;2023-11-21T15:26:15;7.97;;;5.93;;